Time;durP1;ratioP1;P1;durP2;ratioP2;P2;SDS_P1;SDS_P2;PMS_P1;PMS_P2;Temp;Humidity;BMP_temperature;BMP_pressure;BME280_temperature;BME280_humidity;BME280_pressure;Samples;Min_cycle;Max_cycle;Signal;HPM_P1;HPM_P2
2023/04/28 00:00:07;;;;;;;8.93;4.37;;;5.70;99.90;;;;;;5096476;28;20234;-82
2023/04/28 00:02:35;;;;;;;10.43;4.60;;;5.80;99.90;;;;;;5097309;28;20225;-82
2023/04/28 00:05:02;;;;;;;9.37;4.83;;;5.90;99.90;;;;;;5105561;28;20226;-81
2023/04/28 00:07:29;;;;;;;6.33;3.90;;;5.80;99.90;;;;;;5118089;28;20201;-81
2023/04/28 00:09:56;;;;;;;7.93;4.07;;;6.00;99.90;;;;;;5116165;28;20220;-82
2023/04/28 00:12:24;;;;;;;8.33;4.80;;;5.90;99.90;;;;;;5117593;28;20200;-82
2023/04/28 00:14:51;;;;;;;6.07;3.87;;;5.90;99.90;;;;;;5116612;28;20203;-82
2023/04/28 00:17:18;;;;;;;8.17;4.20;;;6.00;99.90;;;;;;5110050;28;20209;-81
2023/04/28 00:19:45;;;;;;;8.50;4.10;;;6.00;99.90;;;;;;5102318;28;20295;-82
2023/04/28 00:22:12;;;;;;;6.33;4.07;;;6.10;99.90;;;;;;5102195;28;20222;-82
2023/04/28 00:24:40;;;;;;;7.93;4.20;;;6.00;99.90;;;;;;5111112;28;20244;-82
2023/04/28 00:27:07;;;;;;;5.77;4.00;;;6.10;99.90;;;;;;5106205;28;20652;-82
2023/04/28 00:29:35;;;;;;;6.27;4.10;;;6.10;99.90;;;;;;5101335;28;20217;-81
2023/04/28 00:32:02;;;;;;;7.53;4.17;;;6.20;99.90;;;;;;5116924;28;20197;-82
2023/04/28 00:34:32;;;;;;;10.63;4.63;;;6.20;99.90;;;;;;5117005;28;20209;-81
2023/04/28 00:36:59;;;;;;;6.53;3.70;;;6.20;99.90;;;;;;5115897;28;20215;-80
2023/04/28 00:39:26;;;;;;;7.07;4.20;;;6.20;99.90;;;;;;5116383;28;20658;-80
2023/04/28 00:41:53;;;;;;;8.30;4.70;;;6.10;99.90;;;;;;5114433;28;20251;-80
2023/04/28 00:44:20;;;;;;;11.00;4.67;;;6.10;99.90;;;;;;5107551;28;20197;-80
2023/04/28 00:46:48;;;;;;;5.87;4.13;;;5.90;99.90;;;;;;5116783;28;20213;-81
2023/04/28 00:49:16;;;;;;;9.00;4.20;;;5.70;99.90;;;;;;5114671;27;20223;-81
2023/04/28 00:51:42;;;;;;;9.23;4.63;;;5.80;99.90;;;;;;5096608;28;20742;-80
2023/04/28 00:54:13;;;;;;;9.87;4.67;;;5.70;99.90;;;;;;5095512;28;20197;-82
2023/04/28 00:56:39;;;;;;;9.23;4.70;;;5.70;99.90;;;;;;5096317;28;20201;-81
2023/04/28 00:59:07;;;;;;;9.83;4.30;;;5.70;99.90;;;;;;5095531;28;20253;-81
2023/04/28 01:01:34;;;;;;;7.57;5.00;;;5.80;99.90;;;;;;5095910;28;20727;-82
2023/04/28 01:04:03;;;;;;;8.67;4.77;;;5.80;99.90;;;;;;5096382;28;20598;-81
2023/04/28 01:06:30;;;;;;;7.20;4.07;;;5.90;99.90;;;;;;5097166;28;20201;-81
2023/04/28 01:08:57;;;;;;;8.97;4.00;;;5.70;99.90;;;;;;5116245;28;20227;-81
2023/04/28 01:11:24;;;;;;;6.83;4.37;;;5.70;99.90;;;;;;5116615;28;20205;-80
2023/04/28 01:13:51;;;;;;;9.23;4.73;;;5.60;99.90;;;;;;5114272;28;20220;-81
2023/04/28 01:16:18;;;;;;;10.03;4.47;;;5.70;99.90;;;;;;5104786;28;20963;-81
2023/04/28 01:18:47;;;;;;;8.83;4.80;;;5.80;99.90;;;;;;5096245;28;20235;-81
2023/04/28 01:21:27;;;;;;;8.40;4.53;;;5.90;99.90;;;;;;5097135;28;20242;-81
2023/04/28 01:23:56;;;;;;;7.27;4.67;;;5.80;99.90;;;;;;5113672;28;20316;-81
2023/04/28 01:26:23;;;;;;;7.97;4.60;;;5.90;99.90;;;;;;5117222;28;20205;-81
2023/04/28 01:28:49;;;;;;;8.83;4.67;;;5.90;99.90;;;;;;5110365;28;20237;-82
2023/04/28 01:31:16;;;;;;;7.40;4.80;;;5.90;99.90;;;;;;5096829;28;20265;-81
2023/04/28 01:33:43;;;;;;;9.10;4.97;;;5.80;99.90;;;;;;5095896;28;20207;-81
2023/04/28 01:36:10;;;;;;;8.57;5.03;;;5.90;99.90;;;;;;5097141;28;20210;-81
2023/04/28 01:38:37;;;;;;;9.10;4.33;;;5.80;99.90;;;;;;5096938;28;20251;-81
2023/04/28 01:41:05;;;;;;;12.17;4.97;;;5.80;99.90;;;;;;5096066;28;20220;-81
2023/04/28 01:43:32;;;;;;;9.07;4.83;;;5.90;99.90;;;;;;5109577;28;20593;-81
2023/04/28 01:45:59;;;;;;;7.53;4.73;;;5.80;99.90;;;;;;5096967;28;20205;-82
2023/04/28 01:48:26;;;;;;;6.50;4.67;;;5.90;99.90;;;;;;5096419;28;20201;-81
2023/04/28 01:50:52;;;;;;;8.03;5.13;;;5.90;99.90;;;;;;5094974;28;20707;-81
2023/04/28 01:53:19;;;;;;;8.80;4.87;;;5.80;99.90;;;;;;5113497;28;20199;-82
2023/04/28 01:55:46;;;;;;;11.30;5.10;;;5.80;99.90;;;;;;5112276;28;20291;-82
2023/04/28 01:58:15;;;;;;;8.43;5.00;;;5.70;99.90;;;;;;5096131;28;20255;-82
2023/04/28 02:00:41;;;;;;;11.80;5.00;;;5.60;99.90;;;;;;5101613;28;20228;-81
2023/04/28 02:03:08;;;;;;;10.10;5.10;;;5.80;99.90;;;;;;5113246;28;20613;-81
2023/04/28 02:05:35;;;;;;;10.83;5.50;;;5.70;99.90;;;;;;5108727;28;20205;-81
2023/04/28 02:08:02;;;;;;;7.63;5.10;;;5.70;99.90;;;;;;5111320;28;20643;-81
2023/04/28 02:10:29;;;;;;;9.07;5.00;;;5.70;99.90;;;;;;5115570;28;20728;-81
2023/04/28 02:12:56;;;;;;;9.30;5.67;;;5.70;99.90;;;;;;5104243;28;20193;-81
2023/04/28 02:15:24;;;;;;;8.77;5.47;;;5.70;99.90;;;;;;5103734;28;20574;-81
2023/04/28 02:17:51;;;;;;;10.07;4.97;;;5.60;99.90;;;;;;5121226;28;20200;-81
2023/04/28 02:20:18;;;;;;;8.60;5.53;;;5.60;99.90;;;;;;5120152;28;20227;-81
2023/04/28 02:22:44;;;;;;;9.43;5.20;;;5.60;99.90;;;;;;5113168;28;20264;-81
2023/04/28 02:25:11;;;;;;;9.10;5.23;;;5.60;99.90;;;;;;5118460;28;20197;-81
2023/04/28 02:27:38;;;;;;;8.80;5.03;;;5.60;99.90;;;;;;5118900;28;20204;-81
2023/04/28 02:30:06;;;;;;;8.67;5.23;;;5.70;99.90;;;;;;5119181;28;20599;-81
2023/04/28 02:32:34;;;;;;;12.60;5.13;;;5.60;99.90;;;;;;5121001;28;20220;-81
2023/04/28 02:35:01;;;;;;;10.50;5.10;;;5.50;99.90;;;;;;5120167;28;20276;-81
2023/04/28 02:37:27;;;;;;;10.70;5.53;;;5.30;99.90;;;;;;5120311;28;20358;-80
2023/04/28 02:39:54;;;;;;;8.57;4.77;;;5.40;99.90;;;;;;5120514;28;20221;-81
2023/04/28 02:42:21;;;;;;;11.20;5.20;;;5.30;99.90;;;;;;5119934;28;20201;-81
2023/04/28 02:44:48;;;;;;;13.10;6.20;;;5.30;99.90;;;;;;5105694;28;20322;-81
2023/04/28 02:47:15;;;;;;;8.20;5.27;;;5.30;99.90;;;;;;5098589;28;20197;-81
2023/04/28 02:49:43;;;;;;;10.23;5.30;;;5.40;99.90;;;;;;5105029;28;20308;-81
2023/04/28 02:52:10;;;;;;;9.53;5.43;;;5.40;99.90;;;;;;5106642;28;20194;-81
2023/04/28 02:54:36;;;;;;;9.30;5.50;;;5.40;99.90;;;;;;5117740;28;20266;-81
2023/04/28 02:57:03;;;;;;;10.10;6.23;;;5.60;99.90;;;;;;5117507;28;20201;-81
2023/04/28 02:59:31;;;;;;;10.60;5.47;;;5.50;99.90;;;;;;5106777;28;20243;-81
2023/04/28 03:01:57;;;;;;;10.07;4.87;;;5.30;99.90;;;;;;5113352;28;20586;-81
2023/04/28 03:04:24;;;;;;;8.50;5.47;;;5.20;99.90;;;;;;5118677;28;20231;-81
2023/04/28 03:06:53;;;;;;;10.37;5.53;;;5.10;99.90;;;;;;5119697;28;20695;-81
2023/04/28 03:09:20;;;;;;;8.77;5.37;;;5.00;99.90;;;;;;5118778;28;20598;-81
2023/04/28 03:11:46;;;;;;;10.90;5.87;;;5.10;99.90;;;;;;5119988;28;20558;-81
2023/04/28 03:14:13;;;;;;;9.07;5.57;;;5.10;99.90;;;;;;5119688;28;20289;-82
2023/04/28 03:16:40;;;;;;;10.63;6.03;;;5.10;99.90;;;;;;5119671;28;20201;-81
2023/04/28 03:19:07;;;;;;;9.50;5.23;;;5.20;99.90;;;;;;5119501;28;20227;-81
2023/04/28 03:21:34;;;;;;;8.20;5.27;;;5.00;99.90;;;;;;5100148;28;20216;-81
2023/04/28 03:24:02;;;;;;;9.97;5.77;;;4.80;99.90;;;;;;5099120;28;20236;-83
2023/04/28 03:26:28;;;;;;;10.33;5.43;;;4.90;99.90;;;;;;5099417;28;20292;-81
2023/04/28 03:28:55;;;;;;;10.13;5.53;;;5.10;99.90;;;;;;5098553;28;20217;-79
2023/04/28 03:31:23;;;;;;;10.77;6.13;;;5.10;99.90;;;;;;5098727;28;20720;-80
2023/04/28 03:33:49;;;;;;;9.43;5.87;;;5.20;99.90;;;;;;5097199;28;20198;-80
2023/04/28 03:36:16;;;;;;;10.13;5.07;;;5.20;99.90;;;;;;5096466;28;20202;-80
2023/04/28 03:38:43;;;;;;;9.87;5.77;;;5.20;99.90;;;;;;5097169;28;20663;-79
2023/04/28 03:41:12;;;;;;;9.83;5.33;;;5.00;99.90;;;;;;5097967;28;20197;-79
2023/04/28 03:43:38;;;;;;;8.27;5.17;;;4.60;99.90;;;;;;5097614;28;20232;-79
2023/04/28 03:46:05;;;;;;;11.17;5.63;;;4.60;99.90;;;;;;5097363;28;20205;-79
2023/04/28 03:48:32;;;;;;;11.63;5.73;;;4.70;99.90;;;;;;5097341;28;20581;-80
2023/04/28 03:50:59;;;;;;;11.30;5.80;;;4.80;99.90;;;;;;5096768;28;20567;-80
2023/04/28 03:53:25;;;;;;;11.27;6.27;;;5.00;99.90;;;;;;5097486;28;20555;-80
2023/04/28 03:55:52;;;;;;;12.73;6.33;;;5.10;99.90;;;;;;5096861;28;20300;-79
2023/04/28 03:58:20;;;;;;;12.87;5.63;;;5.10;99.90;;;;;;5096859;28;20643;-79
2023/04/28 04:00:47;;;;;;;8.43;5.30;;;5.00;99.90;;;;;;5096325;28;20202;-79
2023/04/28 04:03:15;;;;;;;9.27;5.50;;;4.70;99.90;;;;;;5095630;28;20316;-80
2023/04/28 04:05:41;;;;;;;10.83;6.13;;;4.50;99.90;;;;;;5095415;28;20202;-79
2023/04/28 04:08:08;;;;;;;10.73;5.57;;;4.60;99.90;;;;;;5096135;28;20204;-80
2023/04/28 04:10:35;;;;;;;13.63;6.57;;;4.80;99.90;;;;;;5096294;28;20221;-80
2023/04/28 04:13:02;;;;;;;10.67;5.47;;;5.10;99.90;;;;;;5096569;28;20300;-79
2023/04/28 04:15:30;;;;;;;8.57;5.10;;;5.30;99.90;;;;;;5096348;28;20227;-80
2023/04/28 04:17:57;;;;;;;8.60;5.30;;;5.40;99.90;;;;;;5096616;28;20285;-80
2023/04/28 04:20:24;;;;;;;10.10;5.03;;;5.50;99.90;;;;;;5096295;28;20239;-80
2023/04/28 04:22:51;;;;;;;9.10;5.47;;;5.40;99.90;;;;;;5096130;28;20297;-80
2023/04/28 04:25:17;;;;;;;11.07;5.70;;;5.50;99.90;;;;;;5096599;28;20236;-80
2023/04/28 04:27:44;;;;;;;10.33;5.10;;;5.50;99.90;;;;;;5096772;28;20201;-80
2023/04/28 04:30:12;;;;;;;11.17;5.47;;;5.50;99.90;;;;;;5097282;28;20227;-80
2023/04/28 04:32:40;;;;;;;10.03;5.20;;;5.50;99.90;;;;;;5096481;28;20207;-80
2023/04/28 04:35:07;;;;;;;10.43;5.37;;;5.60;99.90;;;;;;5096964;28;20201;-80
2023/04/28 04:37:34;;;;;;;12.40;5.80;;;5.70;99.90;;;;;;5097110;28;20694;-80
2023/04/28 04:40:01;;;;;;;8.43;5.13;;;5.80;99.90;;;;;;5097429;28;20217;-80
2023/04/28 04:42:28;;;;;;;12.00;5.23;;;6.00;99.90;;;;;;5097141;28;20292;-80
2023/04/28 04:44:55;;;;;;;10.67;5.83;;;6.00;99.90;;;;;;5097246;28;20288;-80
2023/04/28 04:47:22;;;;;;;11.60;5.63;;;6.10;99.90;;;;;;5097444;28;20258;-80
2023/04/28 04:49:52;;;;;;;9.00;5.47;;;6.10;99.90;;;;;;5096917;28;20221;-80
2023/04/28 04:52:18;;;;;;;11.17;5.73;;;5.90;99.90;;;;;;5096890;28;20297;-80
2023/04/28 04:54:45;;;;;;;8.93;6.17;;;5.80;99.90;;;;;;5097013;28;20817;-80
2023/04/28 04:57:12;;;;;;;10.17;6.53;;;5.70;99.90;;;;;;5096733;28;20201;-80
2023/04/28 04:59:39;;;;;;;10.73;6.13;;;5.70;99.90;;;;;;5096704;28;20229;-80
2023/04/28 05:02:06;;;;;;;14.13;6.03;;;5.80;99.90;;;;;;5096975;28;20198;-80
2023/04/28 05:04:33;;;;;;;11.70;6.33;;;5.90;99.90;;;;;;5096568;28;20217;-80
2023/04/28 05:07:01;;;;;;;13.07;6.00;;;6.00;99.90;;;;;;5103629;28;20211;-80
2023/04/28 05:09:28;;;;;;;12.07;6.23;;;6.00;99.90;;;;;;5117248;28;20229;-80
2023/04/28 05:11:55;;;;;;;11.03;5.87;;;6.10;99.90;;;;;;5117480;28;20581;-80
2023/04/28 05:14:22;;;;;;;12.57;6.00;;;6.10;99.90;;;;;;5115418;28;20325;-79
2023/04/28 05:16:49;;;;;;;11.03;5.60;;;6.20;99.90;;;;;;5104319;28;20205;-80
2023/04/28 05:19:16;;;;;;;11.53;6.27;;;6.20;99.90;;;;;;5096962;28;20583;-81
2023/04/28 05:21:43;;;;;;;11.27;6.20;;;6.20;99.90;;;;;;5095344;28;20211;-80
2023/04/28 05:24:11;;;;;;;14.73;7.00;;;6.30;99.90;;;;;;5096543;28;20228;-80
2023/04/28 05:26:38;;;;;;;12.33;6.83;;;6.50;99.90;;;;;;5097745;28;20567;-80
2023/04/28 05:29:05;;;;;;;11.00;7.60;;;6.50;99.90;;;;;;5096820;28;20316;-80
2023/04/28 05:31:31;;;;;;;10.73;6.40;;;6.50;99.90;;;;;;5097363;28;20205;-80
2023/04/28 05:33:58;;;;;;;11.93;6.23;;;6.50;99.90;;;;;;5096745;28;20229;-80
2023/04/28 05:36:25;;;;;;;11.97;6.47;;;6.70;99.90;;;;;;5097209;28;20705;-80
2023/04/28 05:38:52;;;;;;;12.77;6.80;;;6.70;99.90;;;;;;5097336;28;20232;-80
2023/04/28 05:41:20;;;;;;;11.70;6.40;;;6.80;99.90;;;;;;5096735;28;20566;-81
2023/04/28 05:43:49;;;;;;;13.57;6.73;;;6.90;99.90;;;;;;5096632;28;20218;-80
2023/04/28 05:46:16;;;;;;;28.57;7.23;;;7.00;99.90;;;;;;5096463;28;20300;-80
2023/04/28 05:48:43;;;;;;;11.37;6.40;;;7.10;99.90;;;;;;5100548;28;20222;-81
2023/04/28 05:51:10;;;;;;;14.80;7.33;;;7.20;99.90;;;;;;5100713;28;20203;-80
2023/04/28 05:53:37;;;;;;;19.67;6.70;;;7.10;99.90;;;;;;5100594;28;20197;-80
2023/04/28 05:56:04;;;;;;;13.13;6.17;;;7.20;99.90;;;;;;5100430;28;20197;-80
2023/04/28 05:58:32;;;;;;;15.53;6.40;;;7.30;99.90;;;;;;5099376;28;20694;-80
2023/04/28 06:00:59;;;;;;;11.50;6.17;;;7.40;99.90;;;;;;5099802;28;20207;-80
2023/04/28 06:03:26;;;;;;;10.23;5.67;;;7.50;99.90;;;;;;5099942;28;20216;-80
2023/04/28 06:05:53;;;;;;;9.03;5.60;;;7.70;99.90;;;;;;5099894;28;20229;-80
2023/04/28 06:08:20;;;;;;;11.60;6.03;;;7.90;99.90;;;;;;5100749;28;20209;-80
2023/04/28 06:10:46;;;;;;;9.23;5.20;;;8.00;99.90;;;;;;5100393;28;20210;-81
2023/04/28 06:13:13;;;;;;;11.77;5.67;;;8.10;99.90;;;;;;5098312;28;20201;-80
2023/04/28 06:15:41;;;;;;;9.73;5.50;;;8.10;99.90;;;;;;5099710;28;20204;-80
2023/04/28 06:18:08;;;;;;;9.17;5.77;;;8.20;99.90;;;;;;5099262;28;20269;-80
2023/04/28 06:20:35;;;;;;;11.87;5.93;;;8.20;99.90;;;;;;5099696;28;20217;-80
2023/04/28 06:23:05;;;;;;;14.07;5.90;;;8.20;99.90;;;;;;5099722;28;20205;-80
2023/04/28 06:25:32;;;;;;;13.00;6.23;;;8.30;99.90;;;;;;5099738;28;20226;-80
2023/04/28 06:27:59;;;;;;;11.40;6.23;;;8.30;99.90;;;;;;5099374;28;20304;-82
2023/04/28 06:30:25;;;;;;;13.53;6.67;;;8.40;99.90;;;;;;5097215;28;20229;-79
2023/04/28 06:32:56;;;;;;;15.47;7.03;;;8.50;99.90;;;;;;5098643;28;20206;-80
2023/04/28 06:35:23;;;;;;;13.73;6.00;;;8.70;99.90;;;;;;5099859;28;20186;-80
2023/04/28 06:37:50;;;;;;;12.90;6.97;;;8.90;99.90;;;;;;5100587;28;20221;-80
2023/04/28 06:40:17;;;;;;;16.93;6.27;;;8.90;99.90;;;;;;5099537;28;20308;-80
2023/04/28 06:42:44;;;;;;;13.77;7.87;;;8.90;99.90;;;;;;5095779;28;20296;-79
2023/04/28 06:45:11;;;;;;;15.80;6.43;;;9.00;99.90;;;;;;5096934;28;20221;-80
2023/04/28 06:47:39;;;;;;;13.43;6.53;;;9.10;99.90;;;;;;5098003;28;20220;-80
2023/04/28 06:50:08;;;;;;;10.47;5.67;;;9.30;99.90;;;;;;5097741;28;20233;-80
2023/04/28 06:52:35;;;;;;;8.97;5.67;;;9.40;99.90;;;;;;5100457;28;20215;-78
2023/04/28 06:55:02;;;;;;;12.30;6.63;;;9.60;99.90;;;;;;5102436;28;20220;-78
2023/04/28 06:57:29;;;;;;;10.47;6.50;;;9.60;99.90;;;;;;5112519;28;20201;-79
2023/04/28 06:59:56;;;;;;;11.80;5.83;;;9.70;99.90;;;;;;5105311;28;20235;-78
2023/04/28 07:02:22;;;;;;;9.70;6.50;;;9.60;99.90;;;;;;5099424;28;20208;-77
2023/04/28 07:04:49;;;;;;;11.30;6.40;;;9.50;99.90;;;;;;5102005;28;20219;-76
2023/04/28 07:07:18;;;;;;;9.90;6.60;;;9.50;99.90;;;;;;5111004;28;20201;-78
2023/04/28 07:09:45;;;;;;;10.00;6.30;;;9.50;99.90;;;;;;5101006;28;20217;-78
2023/04/28 07:12:11;;;;;;;10.00;6.17;;;9.70;99.90;;;;;;5099875;28;20216;-77
2023/04/28 07:14:38;;;;;;;8.90;5.90;;;9.80;99.90;;;;;;5100010;28;20206;-77
2023/04/28 07:17:05;;;;;;;10.60;6.80;;;10.00;99.90;;;;;;5107130;28;20204;-78
2023/04/28 07:19:32;;;;;;;9.17;6.00;;;10.00;99.90;;;;;;5111888;28;20263;-78
2023/04/28 07:21:59;;;;;;;11.27;6.40;;;10.00;99.90;;;;;;5110152;28;20229;-78
2023/04/28 07:24:27;;;;;;;13.83;7.47;;;10.10;99.90;;;;;;5103043;28;20213;-77
2023/04/28 07:26:54;;;;;;;12.03;6.50;;;10.10;99.90;;;;;;5109142;28;20193;-77
2023/04/28 07:29:20;;;;;;;8.07;5.97;;;10.20;99.90;;;;;;5109444;28;20213;-78
2023/04/28 07:31:47;;;;;;;13.63;7.00;;;10.30;99.90;;;;;;5105053;28;20201;-78
2023/04/28 07:34:14;;;;;;;9.87;6.23;;;10.30;99.90;;;;;;5103068;28;20295;-78
2023/04/28 07:36:41;;;;;;;10.10;6.40;;;10.30;99.90;;;;;;5110993;28;20300;-78
2023/04/28 07:39:08;;;;;;;11.57;6.80;;;10.40;99.90;;;;;;5111265;28;20219;-78
2023/04/28 07:41:38;;;;;;;9.43;6.80;;;10.50;99.90;;;;;;5111109;28;20194;-78
2023/04/28 07:44:07;;;;;;;12.30;6.63;;;10.60;99.90;;;;;;5109002;28;20215;-77
2023/04/28 07:46:34;;;;;;;13.10;6.40;;;10.70;99.90;;;;;;5102342;28;20201;-78
2023/04/28 07:49:01;;;;;;;11.50;6.67;;;10.80;99.90;;;;;;5104053;28;20977;-78
2023/04/28 07:51:28;;;;;;;12.47;7.13;;;10.90;99.90;;;;;;5105354;28;20674;-78
2023/04/28 07:53:55;;;;;;;12.37;7.20;;;11.00;1.00;;;;;;5109837;28;20670;-78
2023/04/28 07:56:22;;;;;;;13.23;7.20;;;10.90;1.00;;;;;;5107091;28;20225;-78
2023/04/28 07:58:51;;;;;;;11.70;7.27;;;11.10;99.90;;;;;;5099186;28;20231;-79
2023/04/28 08:01:18;;;;;;;13.83;7.10;;;11.20;99.90;;;;;;5110339;28;20205;-78
2023/04/28 08:03:45;;;;;;;11.43;7.50;;;11.30;99.90;;;;;;5109416;28;20197;-79
2023/04/28 08:06:12;;;;;;;12.77;6.77;;;11.40;99.90;;;;;;5103157;28;20217;-79
2023/04/28 08:08:39;;;;;;;11.63;7.07;;;11.60;10.70;;;;;;5107527;28;20207;-79
2023/04/28 08:11:07;;;;;;;11.27;6.83;;;11.70;1.00;;;;;;5105118;28;20667;-78
2023/04/28 08:13:34;;;;;;;10.70;6.77;;;11.70;99.90;;;;;;5104410;28;20737;-79
2023/04/28 08:16:02;;;;;;;10.73;7.13;;;11.80;1.00;;;;;;5102754;28;20670;-80
2023/04/28 08:18:29;;;;;;;10.80;7.10;;;11.90;1.00;;;;;;5104661;28;20197;-79
2023/04/28 08:20:56;;;;;;;9.87;6.70;;;11.90;1.00;;;;;;5103788;28;20233;-78
2023/04/28 08:23:27;;;;;;;11.07;7.97;;;11.80;99.90;;;;;;5106543;28;20206;-78
2023/04/28 08:25:54;;;;;;;11.10;7.83;;;12.10;99.50;;;;;;5103806;28;20223;-78
2023/04/28 08:28:21;;;;;;;10.57;7.17;;;11.90;1.00;;;;;;5102259;28;20201;-78
2023/04/28 08:30:48;;;;;;;13.43;8.00;;;11.90;1.00;;;;;;5107415;28;20212;-78
2023/04/28 08:33:16;;;;;;;14.20;7.93;;;12.00;1.00;;;;;;5104744;28;20212;-78
2023/04/28 08:35:43;;;;;;;15.47;8.10;;;12.20;1.00;;;;;;5099232;28;20213;-78
2023/04/28 08:38:12;;;;;;;12.97;7.50;;;12.10;1.00;;;;;;5105753;28;20204;-78
2023/04/28 08:40:39;;;;;;;11.20;7.50;;;12.00;99.90;;;;;;5104450;28;20253;-78
2023/04/28 08:43:08;;;;;;;14.83;7.67;;;12.10;99.90;;;;;;5099365;28;20246;-78
2023/04/28 08:45:41;;;;;;;15.00;8.70;;;12.20;1.00;;;;;;5112411;28;20217;-79
2023/04/28 08:48:18;;;;;;;15.37;8.13;;;12.50;1.00;;;;;;5100749;28;20729;-78
2023/04/28 08:50:50;;;;;;;11.63;7.20;;;12.60;99.90;;;;;;5101187;28;20200;-79
2023/04/28 08:53:23;;;;;;;12.60;7.43;;;12.80;1.00;;;;;;5108119;28;20254;-79
2023/04/28 08:55:54;;;;;;;13.07;7.30;;;13.00;99.90;;;;;;5108083;28;20217;-79
2023/04/28 08:58:22;;;;;;;13.90;8.33;;;12.70;1.00;;;;;;5099454;28;20209;-80
2023/04/28 09:00:48;;;;;;;12.30;7.83;;;12.50;1.00;;;;;;5110293;28;20196;-79
2023/04/28 09:03:17;;;;;;;14.57;8.70;;;12.40;1.00;;;;;;5107550;28;20580;-80
2023/04/28 09:05:43;;;;;;;14.90;8.03;;;12.50;28.10;;;;;;5102192;28;20209;-78
2023/04/28 09:08:11;;;;;;;13.63;7.83;;;12.60;1.00;;;;;;5105502;28;20224;-78
2023/04/28 09:10:38;;;;;;;13.47;8.40;;;12.70;1.00;;;;;;5101887;28;20635;-79
2023/04/28 09:13:05;;;;;;;11.80;7.67;;;12.80;1.00;;;;;;5100725;28;20204;-79
2023/04/28 09:15:35;;;;;;;14.27;8.60;;;12.80;1.00;;;;;;5101848;28;20199;-81
2023/04/28 09:18:02;;;;;;;15.20;8.87;;;12.90;1.00;;;;;;5111715;28;20205;-78
2023/04/28 09:20:32;;;;;;;13.70;8.93;;;12.70;99.90;;;;;;5103937;28;20221;-79
2023/04/28 09:23:13;;;;;;;12.33;8.57;;;13.00;1.00;;;;;;5107650;28;20205;-79
2023/04/28 09:25:40;;;;;;;12.33;7.90;;;12.90;1.00;;;;;;5094863;28;20213;-80
2023/04/28 09:28:20;;;;;;;12.70;8.10;;;13.00;1.00;;;;;;5109206;28;20641;-80
2023/04/28 09:30:47;;;;;;;12.90;7.63;;;13.10;99.90;;;;;;5112253;28;20226;-77
2023/04/28 09:33:14;;;;;;;13.67;8.90;;;12.90;1.00;;;;;;5114148;28;20562;-77
2023/04/28 09:35:44;;;;;;;12.67;7.77;;;13.00;99.90;;;;;;5099628;28;20219;-78
2023/04/28 09:38:11;;;;;;;11.93;7.57;;;13.10;99.90;;;;;;5091789;28;20212;-78
2023/04/28 09:40:52;;;;;;;12.70;8.23;;;13.30;99.90;;;;;;5092940;28;20221;-79
2023/04/28 09:43:24;;;;;;;13.40;8.47;;;13.40;1.00;;;;;;5090867;28;20403;-78
2023/04/28 09:45:51;;;;;;;15.13;8.37;;;13.30;1.00;;;;;;5092263;28;20222;-78
2023/04/28 09:48:26;;;;;;;11.63;7.97;;;13.50;99.90;;;;;;5092405;28;20420;-77
2023/04/28 09:50:55;;;;;;;14.90;7.97;;;13.50;1.00;;;;;;5091596;28;20288;-77
2023/04/28 09:53:24;;;;;;;12.40;7.80;;;13.40;1.00;;;;;;5093310;28;20711;-78
2023/04/28 09:55:52;;;;;;;11.33;7.87;;;13.60;99.90;;;;;;5093929;28;20576;-78
2023/04/28 09:58:20;;;;;;;13.73;9.00;;;13.50;1.00;;;;;;5094060;28;20206;-78
2023/04/28 10:00:52;;;;;;;14.10;8.63;;;13.50;99.90;;;;;;5093383;28;20198;-78
2023/04/28 10:03:21;;;;;;;15.17;8.30;;;13.60;1.00;;;;;;5094280;28;20201;-78
2023/04/28 10:05:50;;;;;;;14.70;9.13;;;13.90;1.00;;;;;;5093731;28;20218;-78
2023/04/28 10:08:18;;;;;;;15.40;9.00;;;13.80;60.00;;;;;;5095050;28;20212;-78
2023/04/28 10:10:47;;;;;;;15.70;10.03;;;14.00;1.00;;;;;;5093059;28;20201;-78
2023/04/28 10:13:15;;;;;;;14.17;10.00;;;13.80;1.00;;;;;;5094274;28;20202;-79
2023/04/28 10:15:43;;;;;;;12.07;8.80;;;13.50;99.90;;;;;;5103962;28;20502;-78
2023/04/28 10:18:11;;;;;;;13.17;8.63;;;13.60;99.90;;;;;;5108586;28;20193;-79
2023/04/28 10:20:41;;;;;;;14.27;8.80;;;13.50;1.00;;;;;;5100314;28;20236;-79
2023/04/28 10:23:31;;;;;;;14.33;8.00;;;13.40;99.90;;;;;;5093855;28;20663;-78
2023/04/28 10:25:58;;;;;;;13.37;8.60;;;13.20;22.10;;;;;;5094379;28;20621;-79
2023/04/28 10:28:26;;;;;;;11.87;8.47;;;13.40;99.90;;;;;;5094362;28;20570;-79
2023/04/28 10:31:14;;;;;;;13.53;8.93;;;13.40;79.80;;;;;;5101206;28;20200;-80
2023/04/28 10:33:42;;;;;;;15.07;9.73;;;13.30;99.90;;;;;;5095945;28;20655;-78
2023/04/28 10:36:09;;;;;;;13.33;8.90;;;13.30;1.00;;;;;;5104004;28;20318;-78
2023/04/28 10:39:13;;;;;;;17.40;11.27;;;13.20;1.00;;;;;;5105648;28;20200;-78
2023/04/28 10:41:40;;;;;;;14.90;9.37;;;13.20;99.90;;;;;;5099964;28;20573;-80
2023/04/28 10:44:40;;;;;;;14.03;9.10;;;13.20;1.00;;;;;;5102391;28;20605;-78
2023/04/28 10:47:08;;;;;;;14.20;9.10;;;13.20;1.00;;;;;;5112935;28;20231;-77
2023/04/28 10:50:07;;;;;;;12.93;9.13;;;13.20;1.00;;;;;;5098074;28;20225;-78
2023/04/28 10:52:50;;;;;;;15.60;10.13;;;13.30;1.00;;;;;;5103162;28;20209;-78
2023/04/28 10:55:35;;;;;;;15.33;9.37;;;13.30;1.00;;;;;;5109470;28;20201;-78
2023/04/28 10:58:32;;;;;;;13.77;9.17;;;13.40;1.00;;;;;;5107267;28;20201;-78
2023/04/28 11:01:28;;;;;;;13.77;9.17;;;13.50;1.00;;;;;;5102642;28;20255;-78
2023/04/28 11:04:03;;;;;;;14.03;9.17;;;13.40;1.00;;;;;;5111741;28;20651;-78
2023/04/28 11:06:31;;;;;;;16.70;9.93;;;13.40;1.00;;;;;;5104963;28;20720;-78
2023/04/28 11:09:01;;;;;;;17.10;10.80;;;13.40;1.00;;;;;;5111096;28;20220;-78
2023/04/28 11:11:29;;;;;;;14.23;9.97;;;13.30;95.30;;;;;;5109864;28;20224;-78
2023/04/28 11:14:32;;;;;;;16.07;10.17;;;13.40;99.90;;;;;;5102474;28;20580;-78
2023/04/28 11:17:00;;;;;;;15.33;10.70;;;13.30;1.00;;;;;;5095492;28;20236;-77
2023/04/28 11:19:28;;;;;;;16.33;9.90;;;13.50;99.90;;;;;;5108065;28;20225;-79
2023/04/28 11:21:56;;;;;;;16.83;10.17;;;13.70;1.00;;;;;;5102412;28;20663;-78
2023/04/28 11:24:24;;;;;;;14.10;9.93;;;13.80;1.00;;;;;;5104161;28;20201;-77
2023/04/28 11:26:52;;;;;;;16.63;9.63;;;13.80;1.00;;;;;;5105447;28;20719;-79
2023/04/28 11:29:31;;;;;;;15.20;10.33;;;13.80;1.00;;;;;;5102541;28;20222;-77
2023/04/28 11:31:58;;;;;;;15.07;9.00;;;14.10;1.00;;;;;;5101231;28;20204;-78
2023/04/28 11:34:25;;;;;;;14.30;9.40;;;14.00;1.00;;;;;;5104672;28;20196;-77
2023/04/28 11:36:52;;;;;;;16.27;9.97;;;14.20;99.90;;;;;;5104527;28;20288;-78
2023/04/28 11:39:27;;;;;;;13.67;9.47;;;14.20;77.50;;;;;;5099085;28;20228;-78
2023/04/28 11:41:55;;;;;;;13.87;9.30;;;14.20;99.90;;;;;;5102493;28;20710;-78
2023/04/28 11:44:24;;;;;;;15.07;9.73;;;14.40;47.70;;;;;;5110214;28;20201;-78
2023/04/28 11:46:54;;;;;;;12.37;8.93;;;14.40;1.00;;;;;;5109104;28;20216;-78
2023/04/28 11:49:23;;;;;;;16.27;10.03;;;14.40;1.00;;;;;;5101825;28;20232;-79
2023/04/28 11:51:50;;;;;;;14.80;10.27;;;14.30;36.00;;;;;;5113788;28;20201;-79
2023/04/28 11:54:22;;;;;;;19.60;10.50;;;14.50;1.00;;;;;;5111022;28;20228;-79
2023/04/28 11:56:49;;;;;;;13.77;9.73;;;14.10;1.00;;;;;;5101516;28;20219;-79
2023/04/28 11:59:19;;;;;;;14.73;9.80;;;14.40;1.00;;;;;;5108788;28;20228;-78
2023/04/28 12:01:48;;;;;;;18.20;10.07;;;14.30;99.90;;;;;;5105013;28;20196;-78
2023/04/28 12:04:26;;;;;;;16.47;10.43;;;14.30;1.00;;;;;;5099388;28;20205;-78
2023/04/28 12:06:59;;;;;;;13.80;10.20;;;14.30;1.00;;;;;;5113070;28;20330;-78
2023/04/28 12:09:27;;;;;;;16.07;10.57;;;14.40;1.00;;;;;;5111570;28;20276;-78
2023/04/28 12:11:56;;;;;;;16.70;9.80;;;14.10;1.00;;;;;;5098951;28;20213;-79
2023/04/28 12:14:25;;;;;;;14.13;9.27;;;14.00;99.90;;;;;;5109597;28;20599;-78
2023/04/28 12:16:52;;;;;;;15.30;10.20;;;14.10;1.00;;;;;;5106595;28;20232;-78
2023/04/28 12:19:20;;;;;;;14.37;10.20;;;14.00;99.90;;;;;;5100253;28;20706;-78
2023/04/28 12:22:03;;;;;;;16.63;10.77;;;14.00;17.50;;;;;;5099106;28;20201;-78
2023/04/28 12:24:30;;;;;;;15.27;10.90;;;13.90;99.90;;;;;;5100479;28;20239;-78
2023/04/28 12:27:15;;;;;;;17.60;11.77;;;13.90;99.90;;;;;;5106775;28;20222;-78
2023/04/28 12:29:45;;;;;;;16.40;10.47;;;13.60;1.00;;;;;;5101438;28;20245;-78
2023/04/28 12:32:12;;;;;;;16.53;10.40;;;13.50;19.80;;;;;;5110292;28;20253;-78
2023/04/28 12:34:40;;;;;;;18.13;10.90;;;13.50;1.00;;;;;;5108245;28;20269;-79
2023/04/28 12:37:08;;;;;;;18.30;11.30;;;13.50;1.00;;;;;;5104086;28;20189;-78
2023/04/28 12:39:35;;;;;;;16.63;11.23;;;13.50;99.90;;;;;;5106782;28;20218;-78
2023/04/28 12:42:03;;;;;;;15.93;11.47;;;13.50;99.90;;;;;;5104995;28;20202;-78
2023/04/28 12:44:35;;;;;;;14.53;10.87;;;13.30;62.30;;;;;;5100593;28;20231;-78
2023/04/28 12:47:06;;;;;;;18.23;11.57;;;13.30;1.00;;;;;;5103428;28;20217;-78
2023/04/28 12:49:33;;;;;;;16.97;11.90;;;13.30;28.50;;;;;;5101015;28;20225;-78
2023/04/28 12:52:00;;;;;;;19.73;11.07;;;13.40;99.90;;;;;;5101561;28;20197;-78